Time;durP1;ratioP1;P1;durP2;ratioP2;P2;SDS_P1;SDS_P2;PMS_P1;PMS_P2;Temp;Humidity;BMP_temperature;BMP_pressure;BME280_temperature;BME280_humidity;BME280_pressure;Samples;Min_cycle;Max_cycle;Signal;HPM_P1;HPM_P2
2024/04/24 00:00:24;;;;;;;6.85;1.05;;;;;;;-146.27;77.10;44999.16;5461289;26;20071;-70
2024/04/24 00:02:51;;;;;;;6.15;1.23;;;;;;;-146.27;76.96;44947.41;5454848;26;19999;-69
2024/04/24 00:05:17;;;;;;;3.85;1.27;;;;;;;-146.27;77.84;44939.47;5508859;25;20331;-71
2024/04/24 00:07:43;;;;;;;7.28;1.05;;;;;;;-146.27;77.69;44919.56;5455894;26;19999;-70
2024/04/24 00:10:08;;;;;;;11.40;1.38;;;;;;;-146.27;77.50;44911.59;5483432;26;19990;-71
2024/04/24 00:12:34;;;;;;;12.88;1.45;;;;;;;-146.27;78.52;44843.94;5479839;26;20790;-70
2024/04/24 00:14:59;;;;;;;10.55;1.58;;;;;;;-146.27;78.49;44843.94;5482159;26;20515;-70
2024/04/24 00:17:24;;;;;;;12.05;1.45;;;;;;;-146.27;77.73;44855.88;5469390;26;20400;-71
2024/04/24 00:19:50;;;;;;;11.55;1.52;;;;;;;-146.27;77.87;44875.78;5451372;26;20470;-71
2024/04/24 00:22:15;;;;;;;5.28;1.05;;;;;;;-146.27;76.73;44851.91;5473656;26;20005;-70
2024/04/24 00:24:40;;;;;;;11.32;1.70;;;;;;;-146.27;77.67;44837.97;5473312;26;20342;-70
2024/04/24 00:27:06;;;;;;;6.13;1.25;;;;;;;-146.27;77.66;44863.84;5458264;26;20457;-70
2024/04/24 00:29:31;;;;;;;6.88;1.27;;;;;;;-146.27;76.91;44875.78;5492003;25;20003;-70
2024/04/24 00:32:04;;;;;;;4.88;1.88;;;;;;;-146.27;76.91;44883.75;5497807;26;20011;-70
2024/04/24 00:34:30;;;;;;;7.90;1.17;;;;;;;-146.27;77.59;44867.81;5462269;26;19995;-70
2024/04/24 00:36:55;;;;;;;6.85;1.40;;;;;;;-146.27;76.98;44883.75;5464400;26;20010;-72
2024/04/24 00:39:20;;;;;;;7.72;1.75;;;;;;;-146.27;77.74;44867.81;5453713;26;20023;-70
2024/04/24 00:41:46;;;;;;;7.95;1.20;;;;;;;-146.27;78.49;44883.75;5455934;26;20006;-70
2024/04/24 00:44:11;;;;;;;13.07;1.98;;;;;;;-146.27;78.24;44859.88;5460349;26;19998;-70
2024/04/24 00:46:36;;;;;;;8.63;2.17;;;;;;;-146.27;78.46;44857.88;5449444;26;20529;-70
2024/04/24 00:49:02;;;;;;;4.28;1.00;;;;;;;-146.27;78.97;44832.00;5450454;26;20009;-69
2024/04/24 00:51:29;;;;;;;9.32;1.05;;;;;;;-146.27;78.24;44851.91;5476982;26;20422;-71
2024/04/24 00:53:54;;;;;;;3.45;1.23;;;;;;;-146.27;78.13;44885.72;5476620;26;20445;-71
2024/04/24 00:56:21;;;;;;;3.83;1.05;;;;;;;-146.27;78.49;44847.91;5468476;26;20006;-71
2024/04/24 00:58:46;;;;;;;9.52;1.52;;;;;;;-146.27;78.57;44867.81;5485416;26;19998;-70
2024/04/24 01:01:13;;;;;;;4.30;0.85;;;;;;;-146.27;79.42;44828.03;5465288;25;19994;-70
2024/04/24 01:03:38;;;;;;;7.03;1.05;;;;;;;-146.27;80.50;44756.38;5455600;26;20002;-71
2024/04/24 01:06:04;;;;;;;3.72;1.00;;;;;;;-146.27;79.36;44742.47;5451893;26;19999;-69
2024/04/24 01:08:29;;;;;;;3.20;1.38;;;;;;;-146.27;78.41;44790.22;5454550;26;19994;-70
2024/04/24 01:10:59;;;;;;;5.88;1.88;;;;;;;-146.27;78.05;44800.16;5467556;26;20006;-70
2024/04/24 01:13:25;;;;;;;5.13;1.40;;;;;;;-146.27;78.84;44794.19;5447938;26;20010;-71
2024/04/24 01:16:13;;;;;;;1.90;0.88;;;;;;;-146.27;78.10;44786.25;5456640;26;20009;-70
2024/04/24 01:18:42;;;;;;;6.80;1.33;;;;;;;-146.27;78.16;44820.06;5448095;26;20499;-70
2024/04/24 01:21:09;;;;;;;6.25;1.08;;;;;;;-146.27;78.21;44772.31;5461403;26;20038;-72
2024/04/24 01:23:46;;;;;;;8.32;1.17;;;;;;;-146.27;78.17;44808.13;5458011;26;19991;-69
2024/04/24 01:26:30;;;;;;;5.80;1.08;;;;;;;-146.27;77.53;44808.13;5455865;26;20009;-71
2024/04/24 01:28:56;;;;;;;12.35;1.55;;;;;;;-146.27;77.15;44845.94;5473237;26;20462;-70
2024/04/24 01:31:21;;;;;;;8.48;1.30;;;;;;;-146.27;76.19;44891.69;5447948;26;19991;-70
2024/04/24 01:33:47;;;;;;;5.63;1.52;;;;;;;-146.27;75.67;44933.50;5450185;26;20013;-64
2024/04/24 01:36:12;;;;;;;3.72;1.23;;;;;;;-146.27;75.72;44943.44;5453430;26;20002;-66
2024/04/24 01:38:38;;;;;;;10.45;1.60;;;;;;;-146.27;74.87;45009.13;5464412;26;20928;-64
2024/04/24 01:41:03;;;;;;;6.88;0.93;;;;;;;-146.27;72.95;45092.69;5478983;26;20051;-67
2024/04/24 01:43:28;;;;;;;7.57;1.27;;;;;;;-146.27;72.76;45170.31;5482071;26;19994;-65
2024/04/24 01:45:53;;;;;;;6.82;1.13;;;;;;;-146.27;71.72;45194.19;5471622;26;19995;-68
2024/04/24 01:48:19;;;;;;;8.77;1.05;;;;;;;-146.27;70.53;45273.78;5465864;26;20006;-65
2024/04/24 01:50:44;;;;;;;4.10;1.35;;;;;;;-146.27;69.58;45341.47;5458250;26;20007;-66
2024/04/24 01:53:11;;;;;;;6.53;2.00;;;;;;;-146.27;69.62;45353.41;5454465;26;20002;-67
2024/04/24 01:55:37;;;;;;;7.78;1.20;;;;;;;-146.27;69.04;45389.22;5450850;26;19991;-65
2024/04/24 01:58:02;;;;;;;7.22;1.40;;;;;;;-146.27;68.71;45419.09;5447348;26;20023;-67
2024/04/24 02:00:28;;;;;;;6.82;1.10;;;;;;;-146.27;69.04;45437.00;5479449;26;20009;-66
2024/04/24 02:02:53;;;;;;;9.10;1.52;;;;;;;-146.27;69.10;45444.94;5447390;26;20518;-66
2024/04/24 02:05:18;;;;;;;7.13;1.08;;;;;;;-146.27;69.00;45478.78;5452135;26;21717;-65
2024/04/24 02:07:44;;;;;;;11.48;1.60;;;;;;;-146.27;69.61;45440.97;5481605;26;20386;-66
2024/04/24 02:10:09;;;;;;;6.50;1.05;;;;;;;-146.27;69.41;45472.81;5473339;26;19995;-66
2024/04/24 02:12:34;;;;;;;8.75;1.48;;;;;;;-146.27;68.47;45514.63;5481920;26;20002;-64
2024/04/24 02:15:00;;;;;;;2.47;1.08;;;;;;;-146.27;68.83;45496.69;5467303;26;20002;-65
2024/04/24 02:17:27;;;;;;;8.75;1.42;;;;;;;-146.27;70.46;45490.72;5463938;26;20070;-64
2024/04/24 02:19:52;;;;;;;14.82;1.42;;;;;;;-146.27;72.66;45421.06;5459084;26;20008;-65
2024/04/24 02:22:17;;;;;;;2.88;0.80;;;;;;;-146.27;73.92;45405.16;5467021;26;20363;-65
2024/04/24 02:27:27;;;;;;;7.38;1.25;;;;;;;-146.27;75.05;45341.47;5450073;26;20013;-66
2024/04/24 02:29:52;;;;;;;7.63;0.90;;;;;;;-146.27;74.81;45341.47;5450304;26;20006;-67
2024/04/24 02:32:17;;;;;;;4.07;0.75;;;;;;;-146.27;73.99;45369.31;5473024;26;20712;-64
2024/04/24 02:34:43;;;;;;;2.50;0.82;;;;;;;-146.27;72.17;45468.84;5463838;26;19998;-66
2024/04/24 02:37:08;;;;;;;3.97;0.80;;;;;;;-146.27;70.65;45566.34;5457223;26;20815;-64
2024/04/24 02:39:33;;;;;;;3.78;0.50;;;;;;;-146.27;70.51;45592.22;5477240;26;20009;-66
2024/04/24 02:41:59;;;;;;;2.78;0.50;;;;;;;-146.27;69.88;45588.25;5453982;26;20003;-67
2024/04/24 02:44:24;;;;;;;6.40;0.93;;;;;;;-146.27;69.18;45624.06;5457782;26;20014;-67
2024/04/24 02:46:50;;;;;;;5.05;0.73;;;;;;;-146.27;69.85;45604.19;5466206;26;19991;-66
2024/04/24 02:49:15;;;;;;;6.90;0.80;;;;;;;-146.27;69.61;45596.22;5449634;26;19995;-68
2024/04/24 02:51:40;;;;;;;3.65;0.55;;;;;;;-146.27;70.87;45544.47;5463776;26;20070;-66
2024/04/24 02:54:06;;;;;;;1.73;0.70;;;;;;;-146.27;71.53;45552.44;5448854;26;20010;-67
2024/04/24 02:56:31;;;;;;;4.53;0.75;;;;;;;-146.27;71.03;45508.63;5479272;26;20030;-67
2024/04/24 02:58:56;;;;;;;3.15;0.60;;;;;;;-146.27;71.22;45518.59;5452583;26;20006;-65
2024/04/24 03:01:22;;;;;;;4.88;1.20;;;;;;;-146.27;71.50;45496.69;5474144;26;20005;-65
2024/04/24 03:03:47;;;;;;;5.30;0.80;;;;;;;-146.27;71.59;45510.63;5460317;26;20021;-65
2024/04/24 03:06:13;;;;;;;2.97;0.82;;;;;;;-146.27;71.67;45512.63;5450676;26;19991;-66
2024/04/24 03:08:38;;;;;;;8.70;2.15;;;;;;;-146.27;71.56;45496.69;5450078;26;19999;-65
2024/04/24 03:11:04;;;;;;;6.47;0.82;;;;;;;-146.27;71.47;45500.69;5451410;26;20369;-66
2024/04/24 03:13:29;;;;;;;2.92;0.70;;;;;;;-146.27;71.49;45514.63;5475980;26;20046;-65
2024/04/24 03:15:54;;;;;;;13.90;1.48;;;;;;;-146.27;71.71;45488.75;5477827;26;20001;-64
2024/04/24 03:18:20;;;;;;;7.53;1.40;;;;;;;-146.27;71.66;45510.63;5455387;26;20006;-66
2024/04/24 03:20:45;;;;;;;10.02;1.63;;;;;;;-146.27;72.17;45526.56;5477214;26;19998;-65
2024/04/24 03:23:11;;;;;;;6.65;0.93;;;;;;;-146.27;73.04;45502.66;5466636;26;19998;-66
2024/04/24 03:25:36;;;;;;;4.30;0.90;;;;;;;-146.27;73.12;45472.81;5450331;26;20013;-65
2024/04/24 03:28:01;;;;;;;4.43;0.90;;;;;;;-146.27;73.54;45472.81;5456204;26;20009;-67
2024/04/24 03:30:27;;;;;;;5.85;0.95;;;;;;;-146.27;73.92;45437.00;5456157;26;19990;-65
2024/04/24 03:32:52;;;;;;;6.00;1.10;;;;;;;-146.27;73.81;45438.97;5465027;26;19999;-67
2024/04/24 03:35:17;;;;;;;6.03;1.23;;;;;;;-146.27;73.44;45413.09;5449205;26;20003;-66
2024/04/24 03:37:43;;;;;;;5.22;1.33;;;;;;;-146.27;73.01;45448.94;5462842;26;20070;-65
2024/04/24 03:40:09;;;;;;;4.07;0.95;;;;;;;-146.27;72.29;45484.75;5470961;26;19994;-65
2024/04/24 03:42:34;;;;;;;6.60;1.13;;;;;;;-146.27;72.01;45472.81;5460673;26;20010;-66
2024/04/24 03:44:59;;;;;;;5.05;1.10;;;;;;;-146.27;72.07;45444.94;5462462;26;20443;-65
2024/04/24 03:47:25;;;;;;;7.65;0.75;;;;;;;-146.27;72.13;45462.88;5456586;26;20005;-65
2024/04/24 03:49:50;;;;;;;7.78;1.73;;;;;;;-146.27;72.19;45427.03;5463841;26;20035;-65
2024/04/24 03:52:17;;;;;;;7.07;1.35;;;;;;;-146.27;71.83;45442.97;5459726;26;20072;-68
2024/04/24 03:54:42;;;;;;;9.30;1.27;;;;;;;-146.27;71.98;45397.19;5449838;26;19991;-67
2024/04/24 03:57:08;;;;;;;4.38;0.98;;;;;;;-146.27;71.81;45440.97;5481752;26;20070;-67
2024/04/24 03:59:33;;;;;;;6.78;1.02;;;;;;;-146.27;72.02;45500.69;5463259;26;20032;-65
2024/04/24 04:01:59;;;;;;;4.68;0.80;;;;;;;-146.27;71.22;45444.94;5451004;26;20009;-66
2024/04/24 04:04:24;;;;;;;7.65;0.80;;;;;;;-146.27;70.92;45478.78;5481091;26;20444;-66
2024/04/24 04:06:49;;;;;;;3.88;0.90;;;;;;;-146.27;70.46;45520.59;5448385;26;20002;-66
2024/04/24 04:09:15;;;;;;;2.28;0.75;;;;;;;-146.27;70.39;45504.66;5468327;26;20133;-64
2024/04/24 04:11:40;;;;;;;7.20;1.10;;;;;;;-146.27;70.12;45508.63;5480483;26;20310;-66
2024/04/24 04:14:05;;;;;;;6.53;1.30;;;;;;;-146.27;70.23;45530.53;5479398;26;20479;-67
2024/04/24 04:16:31;;;;;;;6.70;0.95;;;;;;;-146.27;71.23;45506.66;5497361;26;20009;-65
2024/04/24 04:18:57;;;;;;;4.38;0.70;;;;;;;-146.27;71.55;45532.53;5489471;25;20006;-67
2024/04/24 04:21:22;;;;;;;8.23;1.25;;;;;;;-146.27;71.91;45540.50;5451930;26;19995;-65
2024/04/24 04:23:47;;;;;;;4.13;0.57;;;;;;;-146.27;71.88;45518.59;5449178;26;20003;-65
2024/04/24 04:26:13;;;;;;;4.63;0.82;;;;;;;-146.27;71.38;45554.41;5448558;26;20071;-66
2024/04/24 04:28:38;;;;;;;3.13;0.60;;;;;;;-146.27;71.12;45590.25;5470447;26;20591;-65
2024/04/24 04:31:03;;;;;;;1.05;0.52;;;;;;;-146.27;70.94;45606.16;5450303;26;20005;-66
2024/04/24 04:33:29;;;;;;;2.42;0.93;;;;;;;-146.27;70.29;45638.00;5468139;26;19999;-66
2024/04/24 04:35:55;;;;;;;5.22;0.82;;;;;;;-146.27;70.33;45691.75;5470977;26;20064;-66
2024/04/24 04:38:20;;;;;;;5.53;0.80;;;;;;;-146.27;70.97;45689.75;5453714;26;20005;-67
2024/04/24 04:40:47;;;;;;;4.95;0.88;;;;;;;-146.27;71.21;45713.66;5458887;26;20459;-64
2024/04/24 04:43:12;;;;;;;5.95;1.13;;;;;;;-146.27;71.11;45697.72;5454766;26;19998;-67
2024/04/24 04:45:37;;;;;;;9.93;1.33;;;;;;;-146.27;71.03;45691.75;5484492;26;19998;-65
2024/04/24 04:48:06;;;;;;;6.45;1.13;;;;;;;-146.27;70.92;45727.56;5477435;26;20002;-64
2024/04/24 04:50:31;;;;;;;10.52;1.40;;;;;;;-146.27;75.67;45632.03;5461553;26;20049;-65
2024/04/24 04:52:57;;;;;;;7.80;1.75;;;;;;;-146.27;77.38;45552.44;5452045;26;19990;-66
2024/04/24 04:55:22;;;;;;;12.65;1.50;;;;;;;-146.27;78.65;45476.78;5484637;26;20030;-65
2024/04/24 04:57:47;;;;;;;9.90;1.58;;;;;;;-146.27;79.98;45480.78;5461714;26;20342;-65
2024/04/24 05:00:13;;;;;;;13.95;1.50;;;;;;;-146.27;80.20;45582.28;5447980;26;20038;-64
2024/04/24 05:02:38;;;;;;;10.68;1.23;;;;;;;-146.27;79.88;45562.38;5457184;26;20356;-65
2024/04/24 05:05:04;;;;;;;10.75;1.08;;;;;;;-146.27;80.70;45468.84;5450781;26;20343;-70
2024/04/24 05:07:29;;;;;;;8.05;1.17;;;;;;;-146.27;79.68;45544.47;5455472;26;20033;-75
2024/04/24 05:09:55;;;;;;;11.73;1.75;;;;;;;-146.27;79.22;45544.47;5462467;26;19994;-71
2024/04/24 05:12:20;;;;;;;5.75;0.90;;;;;;;-146.27;79.79;45532.53;5473939;26;20804;-71
2024/04/24 05:14:49;;;;;;;12.60;1.20;;;;;;;-146.27;79.95;45520.59;5474405;26;20024;-71
2024/04/24 05:17:14;;;;;;;5.57;1.08;;;;;;;-146.27;79.72;45530.53;5453473;26;19991;-71
2024/04/24 05:19:39;;;;;;;11.48;1.33;;;;;;;-146.27;79.78;45544.47;5450779;26;20458;-72
2024/04/24 05:22:05;;;;;;;8.55;1.38;;;;;;;-146.27;79.89;45524.56;5456232;26;19998;-71
2024/04/24 05:24:30;;;;;;;16.80;1.60;;;;;;;-146.27;80.52;45484.75;5469027;26;20009;-70
2024/04/24 05:29:39;;;;;;;10.68;1.42;;;;;;;-146.27;80.48;45395.19;5465814;26;20405;-72
2024/04/24 05:32:04;;;;;;;6.57;1.20;;;;;;;-146.27;80.07;45383.25;5464134;26;19994;-73
2024/04/24 05:34:30;;;;;;;9.45;1.65;;;;;;;-146.27;80.51;45377.28;5462820;26;20009;-71
2024/04/24 05:36:55;;;;;;;9.18;1.27;;;;;;;-146.27;80.37;45317.56;5461299;26;19991;-71
2024/04/24 05:39:21;;;;;;;7.43;1.08;;;;;;;-146.27;80.24;45325.53;5471017;26;20414;-70
2024/04/24 05:41:46;;;;;;;6.60;1.27;;;;;;;-146.27;80.15;45329.53;5465848;26;19994;-69
2024/04/24 05:44:11;;;;;;;11.35;1.77;;;;;;;-146.27;80.40;45325.53;5479898;26;19991;-71
2024/04/24 05:46:37;;;;;;;15.60;2.03;;;;;;;-146.27;80.15;45301.66;5457527;26;20002;-70
2024/04/24 05:49:02;;;;;;;11.27;1.55;;;;;;;-146.27;80.46;45273.78;5470954;26;19991;-70
2024/04/24 05:51:27;;;;;;;9.20;1.20;;;;;;;-146.27;80.28;45291.72;5465486;26;20003;-70
2024/04/24 05:53:53;;;;;;;13.30;1.40;;;;;;;-146.27;79.78;45345.44;5453571;26;20011;-71
2024/04/24 05:56:18;;;;;;;8.57;1.38;;;;;;;-146.27;79.42;45341.47;5453190;26;20351;-71
2024/04/24 05:58:45;;;;;;;8.15;1.38;;;;;;;-146.27;79.17;45365.34;5467462;26;19991;-71
2024/04/24 06:01:10;;;;;;;11.50;2.03;;;;;;;-146.27;78.92;45337.47;5474671;26;20016;-71
2024/04/24 06:03:36;;;;;;;11.02;1.13;;;;;;;-146.27;78.74;45468.84;5469363;26;20330;-71
2024/04/24 06:06:01;;;;;;;10.18;1.38;;;;;;;-146.27;78.52;45433.00;5456459;26;19990;-73
2024/04/24 06:08:26;;;;;;;12.40;1.17;;;;;;;-146.27;77.53;45437.00;5457644;26;20002;-72
2024/04/24 06:10:52;;;;;;;6.00;1.67;;;;;;;-146.27;77.28;45460.88;5468774;26;20018;-71
2024/04/24 06:13:17;;;;;;;5.07;1.40;;;;;;;-146.27;76.66;45506.66;5461194;26;20002;-66
2024/04/24 06:15:42;;;;;;;10.93;1.70;;;;;;;-146.27;76.69;45512.63;5466937;26;19994;-66
2024/04/24 06:18:08;;;;;;;10.90;1.30;;;;;;;-146.27;76.70;45514.63;5466097;26;19999;-67
2024/04/24 06:20:33;;;;;;;12.88;1.65;;;;;;;-146.27;77.06;45512.63;5465831;26;20031;-65
2024/04/24 06:22:58;;;;;;;10.13;1.90;;;;;;;-146.27;76.36;45522.56;5472066;26;20002;-66
2024/04/24 06:25:24;;;;;;;6.30;1.35;;;;;;;-146.27;76.88;45462.88;5484067;26;20047;-67
2024/04/24 06:27:49;;;;;;;10.93;2.15;;;;;;;-146.27;75.50;45520.59;5452597;26;20458;-67
2024/04/24 06:30:14;;;;;;;12.80;1.75;;;;;;;-146.27;75.32;45514.63;5452283;26;19999;-67
2024/04/24 06:32:40;;;;;;;9.73;1.50;;;;;;;-146.27;73.98;45574.31;5454643;26;19995;-66
2024/04/24 06:35:05;;;;;;;6.85;1.20;;;;;;;-146.27;73.63;45634.03;5456076;26;20455;-67
2024/04/24 06:37:30;;;;;;;9.02;1.55;;;;;;;-146.27;72.39;45695.72;5470012;26;20342;-67
2024/04/24 06:39:56;;;;;;;8.68;2.05;;;;;;;-146.27;72.32;45691.75;5464301;26;20007;-67
2024/04/24 06:42:21;;;;;;;11.20;1.42;;;;;;;-146.27;71.88;45743.50;5469564;26;20014;-67
2024/04/24 06:44:47;;;;;;;7.80;1.35;;;;;;;-146.27;71.81;45719.63;5463588;26;20010;-68
2024/04/24 06:47:12;;;;;;;11.75;1.85;;;;;;;-146.27;72.37;45729.56;5467008;26;19994;-66
2024/04/24 06:49:37;;;;;;;15.05;2.63;;;;;;;-146.27;73.31;45707.69;5485461;26;20008;-67
2024/04/24 06:52:03;;;;;;;9.90;1.85;;;;;;;-146.27;76.70;45596.22;5452282;25;20130;-68
2024/04/24 06:54:30;;;;;;;9.10;1.30;;;;;;;-146.27;77.23;45584.28;5476239;26;20011;-65
2024/04/24 06:56:56;;;;;;;10.93;1.45;;;;;;;-146.27;77.01;45576.31;5471231;26;20771;-65
2024/04/24 06:59:22;;;;;;;14.68;2.17;;;;;;;-146.27;76.74;45578.31;5478442;26;20481;-66
2024/04/24 07:01:47;;;;;;;7.55;2.05;;;;;;;-146.27;77.27;45520.59;5461602;26;20341;-68
2024/04/24 07:04:13;;;;;;;10.98;1.80;;;;;;;-146.27;77.18;45548.44;5480383;26;19994;-67
2024/04/24 07:06:38;;;;;;;6.13;1.50;;;;;;;-146.27;76.92;45552.44;5484842;26;20004;-66
2024/04/24 07:09:04;;;;;;;13.13;2.33;;;;;;;-146.27;76.38;45532.53;5484961;26;19995;-67
2024/04/24 07:11:29;;;;;;;13.38;1.55;;;;;;;-146.27;75.01;45564.38;5478911;26;20351;-69
2024/04/24 07:13:55;;;;;;;12.43;1.95;;;;;;;-146.27;72.71;45679.81;5473368;26;20339;-67
2024/04/24 07:16:20;;;;;;;8.27;1.30;;;;;;;-146.27;72.07;45701.69;5489472;26;19999;-67
2024/04/24 07:18:45;;;;;;;11.48;1.58;;;;;;;-146.27;70.43;45763.41;5457394;26;20380;-66
2024/04/24 07:21:11;;;;;;;18.92;1.58;;;;;;;-146.27;70.13;45791.28;5449746;26;20009;-69
2024/04/24 07:23:36;;;;;;;15.30;1.70;;;;;;;-146.27;69.54;45743.50;5453266;26;19995;-66
2024/04/24 07:26:01;;;;;;;28.63;1.60;;;;;;;-146.27;68.70;45819.13;5462823;26;20337;-68
2024/04/24 07:28:27;;;;;;;16.75;2.80;;;;;;;-146.27;68.16;45827.09;5504485;25;20097;-67
2024/04/24 07:30:52;;;;;;;11.80;1.90;;;;;;;-146.27;67.25;45849.00;5450544;26;20453;-66
2024/04/24 07:33:17;;;;;;;15.10;1.63;;;;;;;-146.27;67.06;45902.75;5469446;26;20197;-71
2024/04/24 07:35:43;;;;;;;12.80;2.30;;;;;;;-146.27;66.09;45924.63;5468002;26;20063;-66
2024/04/24 07:38:10;;;;;;;16.05;2.35;;;;;;;-146.27;65.62;45946.53;5450972;26;20013;-67
2024/04/24 07:40:36;;;;;;;14.20;2.30;;;;;;;-146.27;64.97;45974.41;5450290;26;20006;-68
2024/04/24 07:43:01;;;;;;;11.40;2.10;;;;;;;-146.27;64.79;45958.47;5469781;26;20323;-67
2024/04/24 07:45:27;;;;;;;21.40;2.35;;;;;;;-146.27;64.18;45992.31;5466487;26;20022;-69
2024/04/24 07:47:53;;;;;;;18.30;2.00;;;;;;;-146.27;64.88;45942.53;5484847;26;20315;-68
2024/04/24 07:50:18;;;;;;;16.15;2.03;;;;;;;-146.27;64.59;45978.38;5472618;26;20009;-67
2024/04/24 07:52:43;;;;;;;15.70;2.05;;;;;;;-146.27;65.38;45982.34;5462574;26;20923;-67
2024/04/24 07:55:09;;;;;;;10.10;1.88;;;;;;;-146.27;64.97;46002.25;5470416;26;19990;-68
2024/04/24 07:57:34;;;;;;;15.13;3.33;;;;;;;-146.27;65.59;46006.25;5458178;26;19995;-66
2024/04/24 08:00:00;;;;;;;26.17;3.83;;;;;;;-146.27;66.25;46030.13;5450609;26;19991;-70
2024/04/24 08:02:25;;;;;;;12.55;1.40;;;;;;;-146.27;66.67;46018.19;5460644;26;20009;-68
2024/04/24 08:04:50;;;;;;;19.88;3.38;;;;;;;-146.27;65.38;46010.22;5484099;26;20383;-67
2024/04/24 08:07:16;;;;;;;15.50;1.92;;;;;;;-146.27;65.90;46040.09;5464774;26;19998;-68
2024/04/24 08:09:41;;;;;;;11.88;1.63;;;;;;;-146.27;65.01;46022.16;5457483;26;20471;-66
2024/04/24 08:12:08;;;;;;;11.65;1.65;;;;;;;-146.27;65.38;46020.19;5469533;26;19998;-66
2024/04/24 08:14:33;;;;;;;12.57;1.98;;;;;;;-146.27;65.02;46016.19;5464161;26;20369;-68
2024/04/24 08:16:59;;;;;;;10.50;1.52;;;;;;;-146.27;65.06;46002.25;5460249;26;20070;-67
2024/04/24 08:19:24;;;;;;;12.70;1.60;;;;;;;-146.27;67.14;45954.50;5455630;26;20055;-66
2024/04/24 08:21:50;;;;;;;9.63;2.15;;;;;;;-146.27;66.87;45922.63;5474004;26;20742;-68
2024/04/24 08:24:15;;;;;;;6.57;1.50;;;;;;;-146.27;67.48;45904.72;5466189;26;19999;-66
2024/04/24 08:26:41;;;;;;;10.80;1.20;;;;;;;-146.27;65.82;45936.56;5467281;26;20027;-66
2024/04/24 08:29:06;;;;;;;5.47;0.88;;;;;;;-146.27;64.29;45976.38;5454304;26;19994;-69
2024/04/24 08:31:32;;;;;;;8.70;0.90;;;;;;;-146.27;63.76;46022.16;5456854;26;20489;-66
2024/04/24 08:33:57;;;;;;;6.40;0.95;;;;;;;-146.27;64.51;46032.13;5478840;26;20378;-67
2024/04/24 08:36:23;;;;;;;5.60;0.98;;;;;;;-146.27;62.51;46038.09;5471680;26;19999;-67
2024/04/24 08:38:48;;;;;;;4.18;1.17;;;;;;;-146.27;63.91;46061.97;5453133;26;20599;-67
2024/04/24 08:41:14;;;;;;;4.72;0.80;;;;;;;-146.27;64.34;45994.31;5454611;26;20091;-68
2024/04/24 08:43:41;;;;;;;4.22;0.95;;;;;;;-146.27;63.44;46061.97;5454032;26;19994;-67
2024/04/24 08:46:12;;;;;;;2.13;1.10;;;;;;;-146.27;62.76;46079.91;5463140;26;20410;-67
2024/04/24 08:48:42;;;;;;;6.80;1.13;;;;;;;-146.27;59.80;46175.44;5484602;26;20004;-69
2024/04/24 08:51:08;;;;;;;5.82;1.02;;;;;;;-146.27;59.42;46189.38;5478315;26;20435;-67
2024/04/24 08:53:35;;;;;;;4.50;1.10;;;;;;;-146.27;60.45;46157.53;5456963;26;20343;-68
2024/04/24 08:56:03;;;;;;;9.52;1.58;;;;;;;-146.27;59.11;46161.50;5456146;26;19995;-67
2024/04/24 08:58:35;;;;;;;6.60;1.20;;;;;;;-146.27;58.02;46101.78;5484827;26;20055;-66
2024/04/24 09:01:04;;;;;;;6.85;1.25;;;;;;;-146.27;57.33;46121.69;5470299;26;20010;-67
2024/04/24 09:03:35;;;;;;;6.65;0.93;;;;;;;-146.27;56.51;46165.50;5457745;26;19998;-66
2024/04/24 09:06:02;;;;;;;11.52;1.67;;;;;;;-146.27;56.21;46217.25;5455827;26;20030;-67
2024/04/24 09:08:31;;;;;;;11.02;2.22;;;;;;;-146.27;56.19;46316.78;5484953;26;19998;-66
2024/04/24 09:10:57;;;;;;;13.48;1.55;;;;;;;-146.27;56.12;46310.81;5476523;26;20470;-65
2024/04/24 09:13:24;;;;;;;10.95;1.20;;;;;;;-146.27;61.65;46288.91;5480616;26;20053;-68
2024/04/24 09:15:53;;;;;;;10.10;1.27;;;;;;;-146.27;64.77;46217.25;5484131;25;20006;-67
2024/04/24 09:18:18;;;;;;;7.50;1.48;;;;;;;-146.27;64.84;46221.22;5474746;26;19995;-67
2024/04/24 09:20:46;;;;;;;5.60;1.15;;;;;;;-146.27;66.33;46169.47;5475049;26;20005;-68
2024/04/24 09:23:14;;;;;;;5.60;1.15;;;;;;;-146.27;65.62;46121.69;5483621;26;20001;-67
2024/04/24 09:25:40;;;;;;;8.57;1.20;;;;;;;-146.27;66.87;46085.88;5483718;26;20439;-69
2024/04/24 09:28:06;;;;;;;6.80;1.10;;;;;;;-146.27;68.14;46050.03;5484753;26;19994;-70
2024/04/24 09:30:32;;;;;;;6.78;0.90;;;;;;;-146.27;69.69;46121.69;5483422;26;19998;-67
2024/04/24 09:32:57;;;;;;;3.30;0.68;;;;;;;-146.27;70.31;45962.44;5447429;26;19999;-68
2024/04/24 09:35:23;;;;;;;5.50;1.17;;;;;;;-146.27;66.78;45978.38;5473219;26;20362;-69
2024/04/24 09:37:51;;;;;;;7.10;1.08;;;;;;;-146.27;66.89;45980.38;5482837;26;20086;-67
2024/04/24 09:40:17;;;;;;;9.32;1.20;;;;;;;-146.27;65.04;46022.16;5482430;26;19998;-66
2024/04/24 09:42:46;;;;;;;4.40;0.80;;;;;;;-146.27;62.93;46012.22;5480219;26;20452;-68
2024/04/24 09:45:12;;;;;;;7.60;1.00;;;;;;;-146.27;61.06;46105.78;5475801;26;20434;-70
2024/04/24 09:47:44;;;;;;;4.85;1.00;;;;;;;-146.27;61.11;46161.50;5483822;26;20005;-71
2024/04/24 09:50:10;;;;;;;7.28;0.88;;;;;;;-146.27;60.01;46159.50;5484005;26;19998;-70
2024/04/24 09:52:36;;;;;;;6.30;1.10;;;;;;;-146.27;56.31;46219.22;5467514;26;20005;-71
2024/04/24 09:55:02;;;;;;;11.70;1.02;;;;;;;-146.27;55.96;46193.34;5483165;26;20465;-71
2024/04/24 09:57:38;;;;;;;9.18;1.10;;;;;;;-146.27;52.29;46326.72;5474861;26;20030;-72
2024/04/24 10:00:05;;;;;;;9.52;1.30;;;;;;;-146.27;51.55;46468.06;5455098;26;20009;-70
2024/04/24 10:02:35;;;;;;;3.00;1.52;;;;;;;-146.27;53.20;46414.31;5483326;26;20006;-70
2024/04/24 10:05:12;;;;;;;6.68;1.27;;;;;;;-146.27;49.47;46480.03;5482026;26;20005;-72
2024/04/24 10:07:45;;;;;;;6.72;1.30;;;;;;;-146.27;49.23;46472.06;5483651;26;20018;-72
2024/04/24 10:10:15;;;;;;;6.88;1.98;;;;;;;-146.27;48.66;46450.16;5483923;26;20073;-71
2024/04/24 10:12:44;;;;;;;9.20;1.05;;;;;;;-146.27;49.05;46448.16;5466169;26;19995;-71
2024/04/24 10:15:18;;;;;;;8.32;1.25;;;;;;;-146.27;50.22;46444.19;5472095;26;19991;-71
2024/04/24 10:17:45;;;;;;;8.15;1.85;;;;;;;-146.27;52.85;46499.94;5482649;26;20002;-71
2024/04/24 10:20:11;;;;;;;4.35;0.95;;;;;;;-146.27;52.12;46519.84;5483137;26;20024;-70
2024/04/24 10:22:38;;;;;;;4.95;1.33;;;;;;;-146.27;51.68;46523.81;5483902;26;20002;-71
2024/04/24 10:25:04;;;;;;;9.95;1.30;;;;;;;-146.27;49.49;46565.63;5483216;26;20013;-70
2024/04/24 10:27:31;;;;;;;6.47;1.33;;;;;;;-146.27;47.52;46541.72;5473924;26;19995;-71
2024/04/24 10:29:58;;;;;;;8.85;1.05;;;;;;;-146.27;48.28;46567.63;5462172;26;20068;-71
2024/04/24 10:32:28;;;;;;;6.63;1.13;;;;;;;-146.27;53.29;46484.00;5469743;26;19994;-70
2024/04/24 10:34:56;;;;;;;6.82;1.40;;;;;;;-146.27;59.37;46416.31;5471083;26;19998;-70
2024/04/24 10:37:22;;;;;;;9.32;1.45;;;;;;;-146.27;66.62;46362.56;5486600;26;20350;-71
2024/04/24 10:39:49;;;;;;;6.07;1.08;;;;;;;-146.27;68.83;46171.47;5471848;26;19995;-69
2024/04/24 10:42:15;;;;;;;11.73;1.60;;;;;;;-146.27;68.68;46205.31;5481803;26;20009;-71
2024/04/24 10:44:46;;;;;;;11.55;1.27;;;;;;;-146.27;67.79;46211.28;5481889;26;20453;-71
2024/04/24 10:47:14;;;;;;;6.53;1.10;;;;;;;-146.27;67.97;46109.75;5481601;26;19994;-71
2024/04/24 10:49:40;;;;;;;5.25;0.98;;;;;;;-146.27;65.86;46105.78;5471309;26;20071;-70
2024/04/24 10:52:06;;;;;;;5.35;1.25;;;;;;;-146.27;64.32;46157.53;5486931;26;20109;-71
2024/04/24 10:54:34;;;;;;;4.55;1.00;;;;;;;-146.27;62.51;46097.81;5486666;26;20008;-66
2024/04/24 10:57:01;;;;;;;5.90;1.20;;;;;;;-146.27;59.09;46139.63;5482903;26;20000;-68
2024/04/24 10:59:35;;;;;;;6.03;1.35;;;;;;;-146.27;55.00;46241.13;5479543;26;20444;-68
2024/04/24 11:02:17;;;;;;;8.32;1.45;;;;;;;-146.27;52.00;46259.06;5458713;26;19995;-67
2024/04/24 11:04:52;;;;;;;13.82;1.85;;;;;;;-146.27;52.37;46276.97;5486538;26;20468;-67
2024/04/24 11:07:17;;;;;;;20.60;2.05;;;;;;;-146.27;50.39;46416.31;5486505;26;19995;-67
2024/04/24 11:09:46;;;;;;;11.30;1.23;;;;;;;-146.27;54.84;46376.50;5453728;26;20003;-68
2024/04/24 11:12:12;;;;;;;12.93;2.00;;;;;;;-146.27;51.96;46412.34;5469860;26;20011;-66
2024/04/24 11:14:39;;;;;;;13.45;1.55;;;;;;;-146.27;51.95;46476.03;5486152;26;20449;-69